Time;durP1;ratioP1;P1;durP2;ratioP2;P2;SDS_P1;SDS_P2;PMS_P1;PMS_P2;Temp;Humidity;BMP_temperature;BMP_pressure;BME280_temperature;BME280_humidity;BME280_pressure;Samples;Min_cycle;Max_cycle;Signal;HPM_P1;HPM_P2
2022/01/21 00:03:40;;;;;;;7.03;1.52;;;6.50;99.30;;;;;;10530667;28;20485;-62
2022/01/21 00:08:44;;;;;;;5.28;1.60;;;6.50;99.30;;;;;;10549249;28;20119;-62
2022/01/21 00:13:45;;;;;;;6.72;1.10;;;6.50;99.30;;;;;;10530284;28;20022;-62
2022/01/21 00:19:15;;;;;;;6.55;1.17;;;6.50;99.30;;;;;;10535537;28;20134;-62
2022/01/21 00:34:51;;;;;;;4.40;1.20;;;6.40;99.10;;;;;;10524917;28;19916;-60
2022/01/21 00:39:55;;;;;;;4.82;1.05;;;6.50;99.30;;;;;;10531999;28;20397;-62
2022/01/21 00:45:00;;;;;;;4.78;1.10;;;6.40;99.30;;;;;;10532240;28;20123;-62
2022/01/21 00:50:00;;;;;;;2.08;0.88;;;6.40;99.30;;;;;;10525883;28;20561;-61
2022/01/21 00:55:02;;;;;;;3.30;1.27;;;6.40;99.30;;;;;;10530784;28;20111;-62
2022/01/21 01:00:07;;;;;;;7.30;1.33;;;6.40;99.30;;;;;;10539925;28;20036;-61
2022/01/21 01:05:09;;;;;;;2.92;0.68;;;6.40;99.30;;;;;;10526131;28;20021;-61
2022/01/21 01:10:17;;;;;;;5.20;1.00;;;6.40;99.30;;;;;;10522367;28;20048;-62
2022/01/21 01:20:37;;;;;;;3.03;1.00;;;6.40;99.30;;;;;;10524894;28;20036;-61
2022/01/21 01:30:57;;;;;;;3.95;0.88;;;6.40;99.30;;;;;;10517846;28;20093;-60
2022/01/21 01:35:58;;;;;;;5.60;1.10;;;6.50;99.30;;;;;;10510739;28;20077;-62
2022/01/21 01:41:04;;;;;;;5.07;1.20;;;6.40;99.30;;;;;;10522667;28;20352;-62
2022/01/21 01:51:26;;;;;;;2.85;0.60;;;6.60;99.30;;;;;;10484017;28;20183;-62
2022/01/21 01:56:31;;;;;;;3.28;1.63;;;6.40;99.30;;;;;;10513612;28;20363;-61
2022/01/21 02:01:32;;;;;;;5.03;0.95;;;6.70;99.60;;;;;;10514137;28;20375;-62
2022/01/21 02:06:32;;;;;;;5.38;1.00;;;6.50;99.30;;;;;;10522826;28;20028;-61
2022/01/21 02:11:33;;;;;;;2.78;1.00;;;6.40;99.30;;;;;;10501605;28;20036;-62
2022/01/21 02:17:04;;;;;;;8.05;1.00;;;6.40;99.20;;;;;;10527631;28;20024;-61
2022/01/21 02:22:00;;;;;;;3.55;0.90;;;6.40;99.20;;;;;;10519661;28;20420;-61
2022/01/21 02:27:02;;;;;;;3.20;0.63;;;6.40;99.20;;;;;;10525144;28;20028;-62
2022/01/21 02:32:03;;;;;;;5.50;1.20;;;6.40;99.20;;;;;;10528604;28;20058;-61
2022/01/21 02:37:04;;;;;;;3.75;0.75;;;6.40;99.20;;;;;;10528051;28;20021;-61
2022/01/21 02:42:05;;;;;;;3.10;0.60;;;6.40;99.20;;;;;;10534180;28;20056;-61
2022/01/21 02:47:08;;;;;;;4.53;0.82;;;6.40;99.20;;;;;;10513161;28;20016;-61
2022/01/21 02:52:09;;;;;;;2.92;0.57;;;6.40;99.20;;;;;;10511271;28;20062;-61
2022/01/21 02:57:09;;;;;;;2.45;0.70;;;6.40;99.20;;;;;;10533011;28;20398;-61
2022/01/21 03:02:10;;;;;;;9.93;0.90;;;6.40;99.20;;;;;;10509967;28;20047;-61
2022/01/21 03:07:12;;;;;;;3.40;0.95;;;6.40;99.20;;;;;;10533678;28;20078;-61
2022/01/21 03:12:12;;;;;;;2.33;0.77;;;6.40;99.20;;;;;;10523868;28;20024;-61
2022/01/21 03:17:13;;;;;;;3.03;0.50;;;6.50;99.30;;;;;;10524330;28;20474;-60
2022/01/21 03:22:14;;;;;;;2.85;0.60;;;6.60;99.30;;;;;;10523843;28;20063;-61
2022/01/21 03:27:16;;;;;;;6.40;0.95;;;6.30;99.20;;;;;;10537799;28;20024;-61
2022/01/21 03:32:17;;;;;;;2.63;0.70;;;6.30;99.20;;;;;;10538762;28;20031;-61
2022/01/21 03:37:18;;;;;;;3.28;0.88;;;6.30;99.20;;;;;;10528640;28;20039;-61
2022/01/21 03:42:18;;;;;;;6.93;0.70;;;6.40;99.20;;;;;;10532755;28;20262;-61
2022/01/21 03:47:19;;;;;;;4.22;1.05;;;6.30;99.20;;;;;;10534945;28;20020;-61
2022/01/21 03:52:20;;;;;;;4.07;0.80;;;6.30;99.20;;;;;;10527686;28;20279;-61
2022/01/21 03:57:21;;;;;;;6.07;0.52;;;6.30;99.20;;;;;;10545681;28;20046;-61
2022/01/21 04:02:21;;;;;;;3.55;0.93;;;6.30;99.20;;;;;;10521656;28;20044;-61
2022/01/21 04:07:22;;;;;;;2.72;0.63;;;6.50;99.30;;;;;;10540835;28;20024;-61
2022/01/21 04:12:23;;;;;;;2.13;0.35;;;6.30;99.20;;;;;;10540539;28;20034;-61
2022/01/21 04:17:24;;;;;;;2.67;0.93;;;6.40;99.30;;;;;;10538923;28;20024;-60
2022/01/21 04:22:24;;;;;;;3.78;0.85;;;6.30;99.20;;;;;;10534913;28;20071;-61
2022/01/21 04:27:25;;;;;;;1.38;0.57;;;6.30;99.20;;;;;;10539252;28;20038;-60
2022/01/21 04:32:26;;;;;;;2.92;0.55;;;6.30;99.20;;;;;;10539226;28;20446;-61
2022/01/21 04:37:27;;;;;;;5.10;0.60;;;6.20;99.20;;;;;;10535166;28;20294;-60
2022/01/21 04:47:48;;;;;;;3.05;0.52;;;6.20;99.40;;;;;;10530705;28;20040;-60
2022/01/21 04:52:48;;;;;;;5.45;0.73;;;6.20;99.20;;;;;;10524689;28;20028;-60
2022/01/21 04:57:49;;;;;;;3.78;0.73;;;6.60;99.30;;;;;;10535070;28;20032;-61
2022/01/21 05:02:50;;;;;;;2.85;0.82;;;6.20;99.20;;;;;;10510503;28;20028;-63
2022/01/21 05:07:51;;;;;;;2.75;0.40;;;6.20;99.30;;;;;;10523417;28;20027;-61
2022/01/21 05:12:52;;;;;;;4.97;0.73;;;6.30;99.20;;;;;;10532126;28;20454;-59
2022/01/21 05:17:53;;;;;;;3.50;0.55;;;6.30;99.20;;;;;;10518517;28;20028;-60
2022/01/21 05:22:53;;;;;;;4.50;0.65;;;6.30;99.50;;;;;;10527813;28;20036;-60
2022/01/21 05:27:58;;;;;;;3.72;0.70;;;6.30;99.20;;;;;;10509377;28;20639;-59
2022/01/21 05:32:58;;;;;;;4.72;0.50;;;6.30;99.20;;;;;;10511885;28;20024;-60
2022/01/21 05:37:59;;;;;;;1.83;0.38;;;6.20;99.20;;;;;;10525191;28;20044;-60
2022/01/21 05:43:00;;;;;;;5.18;0.60;;;6.20;99.30;;;;;;10522895;28;20276;-57
2022/01/21 05:48:01;;;;;;;4.47;0.70;;;6.20;99.20;;;;;;10526372;28;20032;-58
2022/01/21 05:53:08;;;;;;;4.20;0.55;;;6.20;99.20;;;;;;10509284;28;20047;-59
2022/01/21 05:58:10;;;;;;;4.80;0.73;;;6.20;99.20;;;;;;10537376;28;20040;-58
2022/01/21 06:03:12;;;;;;;3.33;0.50;;;6.20;99.20;;;;;;10519612;28;20111;-59
2022/01/21 06:08:12;;;;;;;3.78;0.75;;;6.20;99.20;;;;;;10534940;28;20119;-60
2022/01/21 06:13:16;;;;;;;3.17;0.50;;;6.20;99.20;;;;;;10528264;28;20036;-57
2022/01/21 06:18:17;;;;;;;2.67;0.40;;;6.20;99.20;;;;;;10523398;28;20069;-60
2022/01/21 06:23:18;;;;;;;1.95;0.40;;;6.20;99.20;;;;;;10524335;28;20077;-60
2022/01/21 06:28:19;;;;;;;2.88;1.30;;;6.10;99.20;;;;;;10527400;28;20039;-60
2022/01/21 06:33:20;;;;;;;3.25;0.70;;;6.10;99.20;;;;;;10523881;28;20035;-60
2022/01/21 06:38:22;;;;;;;3.70;0.70;;;6.10;99.20;;;;;;10508837;28;20102;-59
2022/01/21 06:43:23;;;;;;;4.90;0.50;;;6.10;99.20;;;;;;10516774;28;20494;-58
2022/01/21 06:48:25;;;;;;;3.38;1.05;;;6.20;99.20;;;;;;10512487;28;20036;-61
2022/01/21 06:53:26;;;;;;;2.65;0.60;;;6.10;99.10;;;;;;10504962;28;20040;-58
2022/01/21 06:58:27;;;;;;;4.13;1.10;;;6.20;99.20;;;;;;10524910;28;20032;-60
2022/01/21 07:03:27;;;;;;;8.20;1.45;;;6.10;99.10;;;;;;10528004;28;20431;-57
2022/01/21 07:08:28;;;;;;;2.00;0.70;;;6.10;99.10;;;;;;10521413;28;20722;-59
2022/01/21 07:13:29;;;;;;;2.78;0.70;;;6.10;99.10;;;;;;10513120;28;20124;-60
2022/01/21 07:18:30;;;;;;;5.13;0.90;;;6.10;99.10;;;;;;10519437;28;20040;-59
2022/01/21 07:23:31;;;;;;;1.05;0.40;;;6.10;99.10;;;;;;10522539;28;20032;-59
2022/01/21 07:28:33;;;;;;;3.22;0.50;;;6.10;99.10;;;;;;10521618;28;20607;-59
2022/01/21 07:33:34;;;;;;;4.93;0.70;;;6.10;99.10;;;;;;10526993;28;20032;-59
2022/01/21 07:38:35;;;;;;;3.30;0.70;;;6.10;99.10;;;;;;10526666;28;20116;-60
2022/01/21 07:43:35;;;;;;;1.17;0.43;;;6.10;99.10;;;;;;10528034;28;20062;-59
2022/01/21 07:48:36;;;;;;;7.22;1.10;;;6.10;99.10;;;;;;10506439;28;20157;-61
2022/01/21 07:53:37;;;;;;;3.15;0.52;;;6.10;99.10;;;;;;10484130;28;20025;-59
2022/01/21 07:58:38;;;;;;;2.22;0.93;;;6.10;99.10;;;;;;10517681;28;20055;-59
2022/01/21 08:03:39;;;;;;;2.85;0.60;;;6.10;99.10;;;;;;10522742;28;20039;-60
2022/01/21 08:08:39;;;;;;;3.33;0.70;;;6.10;99.10;;;;;;10521621;28;20077;-60
2022/01/21 08:13:40;;;;;;;3.00;0.77;;;6.10;99.10;;;;;;10516186;28;20029;-59
2022/01/21 08:18:41;;;;;;;3.75;0.77;;;6.10;99.00;;;;;;10515263;28;20421;-61
2022/01/21 08:23:42;;;;;;;3.28;0.60;;;6.10;99.00;;;;;;10527272;28;20044;-59
2022/01/21 08:28:42;;;;;;;3.95;1.00;;;6.10;99.00;;;;;;10533803;28;20032;-60
2022/01/21 08:33:43;;;;;;;3.97;1.02;;;6.20;99.00;;;;;;10532578;28;20035;-60
2022/01/21 08:38:44;;;;;;;3.33;1.02;;;6.20;99.00;;;;;;10532208;28;20066;-59
2022/01/21 08:43:44;;;;;;;3.90;0.88;;;6.20;99.00;;;;;;10531899;28;20028;-59
2022/01/21 08:48:45;;;;;;;2.65;0.68;;;6.20;99.00;;;;;;10523194;28;20653;-60
2022/01/21 08:53:46;;;;;;;1.65;0.70;;;6.30;99.20;;;;;;10523850;28;20417;-60
2022/01/21 08:58:48;;;;;;;5.15;0.82;;;6.20;98.90;;;;;;10509489;28;20547;-61
2022/01/21 09:03:49;;;;;;;5.40;0.95;;;6.20;98.80;;;;;;10504654;28;20020;-60
2022/01/21 09:08:49;;;;;;;6.78;1.33;;;6.30;98.80;;;;;;10538931;28;20619;-60
2022/01/21 09:13:51;;;;;;;4.93;0.98;;;6.30;98.80;;;;;;10509459;28;20024;-60
2022/01/21 09:18:55;;;;;;;2.75;0.88;;;6.30;98.80;;;;;;10532604;28;20082;-60
2022/01/21 09:23:56;;;;;;;5.03;1.20;;;6.40;98.80;;;;;;10525768;28;20523;-60
2022/01/21 09:28:58;;;;;;;3.63;1.00;;;6.40;98.80;;;;;;10530447;28;20131;-60
2022/01/21 09:33:59;;;;;;;2.40;0.75;;;6.40;98.80;;;;;;10511668;28;20107;-61
2022/01/21 09:39:00;;;;;;;4.78;1.13;;;6.40;98.80;;;;;;10528261;28;20044;-61
2022/01/21 09:44:03;;;;;;;5.05;1.50;;;5.70;98.70;;;;;;10529024;28;20768;-61
2022/01/21 09:49:09;;;;;;;3.92;1.10;;;6.40;98.80;;;;;;10518890;28;20101;-60
2022/01/21 09:54:11;;;;;;;5.68;1.30;;;6.50;98.80;;;;;;10513043;28;20024;-60
2022/01/21 09:59:17;;;;;;;6.57;1.48;;;6.50;98.80;;;;;;10513515;28;20390;-61
2022/01/21 10:04:20;;;;;;;3.85;1.23;;;6.50;98.80;;;;;;10522951;28;20016;-61
2022/01/21 10:09:23;;;;;;;4.57;0.80;;;6.60;98.80;;;;;;10538173;28;20429;-60
2022/01/21 10:14:26;;;;;;;4.15;1.23;;;6.60;98.80;;;;;;10525220;28;20486;-61
2022/01/21 10:19:30;;;;;;;4.72;1.27;;;6.60;98.80;;;;;;10528869;28;20124;-60
2022/01/21 10:24:33;;;;;;;8.13;1.55;;;6.60;98.80;;;;;;10524027;28;20080;-60
2022/01/21 10:29:40;;;;;;;3.65;1.20;;;6.60;98.80;;;;;;10526732;28;20054;-60
2022/01/21 10:34:43;;;;;;;5.60;1.48;;;6.70;98.80;;;;;;10514798;28;20496;-61
2022/01/21 10:40:01;;;;;;;7.18;1.58;;;6.70;98.80;;;;;;10513388;28;20051;-60
2022/01/21 10:45:04;;;;;;;6.82;1.63;;;6.80;98.80;;;;;;10526713;28;20031;-60
2022/01/21 10:50:13;;;;;;;6.00;1.40;;;6.80;98.80;;;;;;10514167;28;20548;-60
2022/01/21 10:55:29;;;;;;;8.25;1.20;;;6.90;98.80;;;;;;10522023;28;20028;-59
2022/01/21 11:00:30;;;;;;;4.22;1.20;;;6.80;98.80;;;;;;10518543;28;20422;-60
2022/01/21 11:05:37;;;;;;;6.28;1.48;;;6.90;98.80;;;;;;10518501;28;20473;-59
2022/01/21 11:10:51;;;;;;;4.70;1.23;;;6.90;98.80;;;;;;10519798;28;20381;-61
2022/01/21 11:15:55;;;;;;;8.25;1.40;;;7.00;98.80;;;;;;10526735;28;20107;-60
2022/01/21 11:21:08;;;;;;;5.70;1.08;;;7.00;98.80;;;;;;10527256;28;20036;-60
2022/01/21 11:26:09;;;;;;;3.50;1.25;;;7.10;98.80;;;;;;10515073;28;20028;-59
2022/01/21 11:31:10;;;;;;;5.13;1.60;;;7.20;98.80;;;;;;10527440;28;20109;-60
2022/01/21 11:36:11;;;;;;;4.78;1.20;;;7.10;98.80;;;;;;10525853;28;20154;-60
2022/01/21 11:41:14;;;;;;;4.40;1.10;;;7.20;98.80;;;;;;10520649;28;20104;-59
2022/01/21 11:51:34;;;;;;;5.13;1.27;;;7.10;98.90;;;;;;10526393;28;20779;-60
2022/01/21 11:56:35;;;;;;;4.05;1.30;;;7.10;98.90;;;;;;10538126;28;20378;-60
2022/01/21 12:01:46;;;;;;;7.85;1.48;;;7.30;99.00;;;;;;10524151;28;20040;-58
2022/01/21 12:06:47;;;;;;;4.10;1.10;;;7.20;99.00;;;;;;10529633;28;20024;-57
2022/01/21 12:11:56;;;;;;;4.30;1.13;;;7.20;99.00;;;;;;10521821;28;20478;-58
2022/01/21 12:17:11;;;;;;;6.80;1.10;;;7.20;99.10;;;;;;10526708;28;20032;-59
2022/01/21 12:22:15;;;;;;;3.15;1.00;;;7.20;99.30;;;;;;10531207;28;20059;-60
2022/01/21 12:27:15;;;;;;;5.13;0.95;;;7.20;99.10;;;;;;10517614;28;20441;-58
2022/01/21 12:32:30;;;;;;;5.40;1.52;;;7.20;99.10;;;;;;10527655;28;20496;-60
2022/01/21 12:38:03;;;;;;;2.45;1.00;;;7.20;99.20;;;;;;10532448;28;20501;-58
2022/01/21 12:43:49;;;;;;;3.08;0.80;;;7.20;99.20;;;;;;10527072;28;20126;-61
2022/01/21 12:48:51;;;;;;;3.85;0.98;;;7.20;99.30;;;;;;10507330;28;20037;-59
2022/01/21 12:59:29;;;;;;;2.83;1.25;;;7.30;99.30;;;;;;10516791;28;20084;-60
2022/01/21 13:04:50;;;;;;;3.60;1.13;;;7.30;99.30;;;;;;10508814;28;20015;-61
2022/01/21 13:10:04;;;;;;;4.25;1.30;;;7.30;99.30;;;;;;10502079;28;20032;-60
2022/01/21 13:15:05;;;;;;;6.03;1.15;;;7.30;99.40;;;;;;10530986;28;20032;-59
2022/01/21 13:20:06;;;;;;;4.15;1.20;;;7.30;99.40;;;;;;10522618;28;20033;-58
2022/01/21 13:25:15;;;;;;;4.88;1.17;;;7.30;99.40;;;;;;10520462;28;20564;-60
2022/01/21 13:30:18;;;;;;;4.30;0.98;;;7.30;99.40;;;;;;10530224;28;20500;-58
2022/01/21 13:35:23;;;;;;;6.35;1.70;;;7.30;99.40;;;;;;10530672;28;20024;-58
2022/01/21 13:40:24;;;;;;;3.65;1.00;;;7.40;99.50;;;;;;10530114;28;20059;-62
2022/01/21 13:45:25;;;;;;;2.28;1.00;;;7.40;99.60;;;;;;10527923;28;20031;-61
2022/01/21 13:50:26;;;;;;;6.38;1.15;;;7.50;99.50;;;;;;10523028;28;20039;-61
2022/01/21 13:55:40;;;;;;;7.97;1.30;;;7.50;99.50;;;;;;10513270;28;20416;-61
2022/01/21 14:00:45;;;;;;;2.67;0.90;;;7.50;99.50;;;;;;10507981;28;20044;-60
2022/01/21 14:05:53;;;;;;;5.63;1.88;;;7.50;99.60;;;;;;10516321;28;20020;-60
2022/01/21 14:11:17;;;;;;;4.18;1.15;;;7.50;99.60;;;;;;10513757;28;20414;-60
2022/01/21 14:16:32;;;;;;;6.88;1.98;;;7.50;99.70;;;;;;10526689;28;20024;-60
2022/01/21 14:21:34;;;;;;;4.60;1.70;;;7.50;99.60;;;;;;10526381;28;20070;-61
2022/01/21 14:26:43;;;;;;;3.88;1.40;;;7.50;99.60;;;;;;10532172;28;20036;-60
2022/01/21 14:31:47;;;;;;;3.25;1.42;;;7.50;99.70;;;;;;10528980;28;20502;-61
2022/01/21 14:37:13;;;;;;;5.55;1.17;;;7.50;99.70;;;;;;10529348;28;20074;-61
2022/01/21 14:42:24;;;;;;;7.35;1.77;;;7.80;99.80;;;;;;10530281;28;20067;-61
2022/01/21 14:47:29;;;;;;;3.50;1.50;;;7.50;99.70;;;;;;10522882;28;20032;-60
2022/01/21 14:52:45;;;;;;;6.53;1.70;;;7.50;99.70;;;;;;10520311;28;20506;-60
2022/01/21 14:57:56;;;;;;;5.65;1.20;;;7.50;99.80;;;;;;10530290;28;20024;-60
2022/01/21 15:03:32;;;;;;;3.70;1.10;;;7.50;99.80;;;;;;10516716;28;20044;-61
2022/01/21 15:08:39;;;;;;;5.40;1.40;;;7.50;99.80;;;;;;10529999;28;20039;-61
2022/01/21 15:19:00;;;;;;;4.05;1.52;;;7.50;99.90;;;;;;10528707;28;20505;-60
2022/01/21 15:24:02;;;;;;;4.82;1.20;;;7.50;99.90;;;;;;10522822;28;20023;-61
2022/01/21 15:29:06;;;;;;;5.38;1.27;;;7.50;99.90;;;;;;10531845;28;20028;-61
2022/01/21 15:34:08;;;;;;;5.93;1.48;;;7.50;99.90;;;;;;10526832;28;20429;-61
2022/01/21 15:39:09;;;;;;;2.40;1.25;;;7.50;99.90;;;;;;10526037;28;20093;-60
2022/01/21 15:44:10;;;;;;;6.38;1.25;;;7.80;99.90;;;;;;10526331;28;20032;-61
2022/01/21 15:49:16;;;;;;;3.17;1.05;;;7.50;99.90;;;;;;10514428;28;20039;-61
2022/01/21 15:54:17;;;;;;;9.18;1.67;;;7.50;99.90;;;;;;10519052;28;20109;-61
2022/01/21 15:59:20;;;;;;;3.08;1.50;;;7.50;99.90;;;;;;10515019;28;20088;-61
2022/01/21 16:04:21;;;;;;;4.20;1.20;;;7.60;99.90;;;;;;10510832;28;20031;-61
2022/01/21 16:09:22;;;;;;;5.35;1.35;;;7.50;99.90;;;;;;10508202;28;20476;-61
2022/01/21 16:14:23;;;;;;;3.78;1.40;;;7.50;99.90;;;;;;10526134;28;20138;-61
2022/01/21 16:19:24;;;;;;;7.10;1.10;;;7.50;99.90;;;;;;10521286;28;20237;-61
2022/01/21 16:24:24;;;;;;;2.65;1.27;;;7.50;99.90;;;;;;10517984;28;20009;-61
2022/01/21 16:29:25;;;;;;;3.55;1.30;;;7.60;99.90;;;;;;10512934;28;20456;-61
2022/01/21 16:34:28;;;;;;;3.25;1.40;;;7.70;99.90;;;;;;10506555;28;20064;-61
2022/01/21 16:39:29;;;;;;;3.78;1.20;;;7.50;99.90;;;;;;10475642;28;20131;-62
2022/01/21 16:44:30;;;;;;;2.80;1.00;;;7.60;99.90;;;;;;10499677;28;20085;-61
2022/01/21 16:49:31;;;;;;;5.50;1.02;;;7.50;99.90;;;;;;10508074;28;20040;-62
2022/01/21 16:54:32;;;;;;;6.72;1.20;;;7.60;99.90;;;;;;10496733;28;20039;-61
2022/01/21 16:59:33;;;;;;;3.85;1.17;;;7.60;99.90;;;;;;10509668;28;20033;-63
2022/01/21 17:04:34;;;;;;;3.60;1.50;;;7.60;99.90;;;;;;10508159;28;20028;-61
2022/01/21 17:09:35;;;;;;;3.65;1.08;;;7.60;99.90;;;;;;10498300;28;20017;-61
2022/01/21 17:14:36;;;;;;;7.57;1.67;;;7.50;99.90;;;;;;10497893;28;20032;-63
2022/01/21 17:19:38;;;;;;;6.22;1.90;;;7.60;99.90;;;;;;10529485;28;20024;-63
2022/01/21 17:24:40;;;;;;;9.15;1.83;;;7.80;99.90;;;;;;10519849;28;20032;-63
2022/01/21 17:29:41;;;;;;;5.97;2.03;;;7.60;99.90;;;;;;10517319;28;20363;-63
2022/01/21 17:34:42;;;;;;;6.53;1.70;;;7.60;99.90;;;;;;10530350;28;20024;-62
2022/01/21 17:39:42;;;;;;;4.82;1.77;;;7.60;99.90;;;;;;10505221;28;20139;-63
2022/01/21 17:44:43;;;;;;;6.72;2.30;;;7.60;99.90;;;;;;10522180;28;20104;-62
2022/01/21 17:49:45;;;;;;;15.80;4.43;;;7.60;99.90;;;;;;10521457;28;20071;-64
2022/01/21 17:54:46;;;;;;;9.77;2.60;;;7.60;99.90;;;;;;10514388;28;20021;-62
2022/01/21 17:59:47;;;;;;;14.68;3.42;;;7.80;99.90;;;;;;10518718;28;20602;-64
2022/01/21 18:04:50;;;;;;;7.40;2.70;;;7.80;99.90;;;;;;10525481;28;20027;-60
2022/01/21 18:09:50;;;;;;;7.13;2.65;;;7.80;99.90;;;;;;10535573;28;20034;-61
2022/01/21 18:14:51;;;;;;;6.40;3.30;;;7.80;99.90;;;;;;10529432;28;20432;-64
2022/01/21 18:19:53;;;;;;;9.02;2.65;;;7.90;99.90;;;;;;10527612;28;20540;-64
2022/01/21 18:24:53;;;;;;;6.78;2.47;;;7.70;99.90;;;;;;10528622;28;20168;-61
2022/01/21 18:29:54;;;;;;;8.90;3.25;;;7.70;99.90;;;;;;10528651;28;20303;-64
2022/01/21 18:34:55;;;;;;;7.20;2.30;;;7.70;99.90;;;;;;10532371;28;20028;-64
2022/01/21 18:39:56;;;;;;;7.90;2.00;;;7.70;99.90;;;;;;10528618;28;20044;-62
2022/01/21 18:45:14;;;;;;;5.82;2.22;;;7.70;99.90;;;;;;10515170;28;20034;-64
2022/01/21 18:50:19;;;;;;;8.27;2.35;;;7.70;99.90;;;;;;10509028;28;20073;-64
2022/01/21 18:55:23;;;;;;;7.43;2.20;;;7.70;99.90;;;;;;10517890;28;20070;-65
2022/01/21 19:00:25;;;;;;;9.90;2.78;;;7.70;99.90;;;;;;10511515;28;20483;-63
2022/01/21 19:05:28;;;;;;;6.90;2.20;;;7.70;99.90;;;;;;10514567;28;20494;-60
2022/01/21 19:10:30;;;;;;;6.38;1.90;;;7.80;99.90;;;;;;10507589;28;20055;-64
2022/01/21 19:15:31;;;;;;;6.10;2.30;;;8.00;99.90;;;;;;10505035;28;20859;-60
2022/01/21 19:20:32;;;;;;;7.75;2.17;;;7.90;99.90;;;;;;10515028;28;20371;-63
2022/01/21 19:30:47;;;;;;;7.93;2.08;;;7.90;99.90;;;;;;10505113;28;20024;-62
2022/01/21 19:35:53;;;;;;;7.43;1.80;;;7.80;99.90;;;;;;10501647;28;20036;-62
2022/01/21 19:40:56;;;;;;;6.82;1.85;;;7.90;99.90;;;;;;10478681;28;20124;-66
2022/01/21 19:46:01;;;;;;;5.50;1.80;;;7.80;99.90;;;;;;10469830;28;20016;-62
2022/01/21 19:51:02;;;;;;;5.72;1.65;;;7.80;99.90;;;;;;10475616;28;20024;-62
2022/01/21 19:56:05;;;;;;;7.65;1.90;;;7.90;99.90;;;;;;10462764;28;20507;-61
2022/01/21 20:01:18;;;;;;;5.22;1.80;;;7.80;99.90;;;;;;10469378;28;20064;-61
2022/01/21 20:16:45;;;;;;;9.40;1.98;;;7.80;99.90;;;;;;10466805;28;20045;-63
2022/01/21 20:21:46;;;;;;;5.63;1.80;;;8.00;99.90;;;;;;10472266;28;20144;-63
2022/01/21 20:26:48;;;;;;;4.55;2.20;;;7.80;99.90;;;;;;10463316;28;20025;-62
2022/01/21 20:31:54;;;;;;;8.38;2.03;;;7.80;99.90;;;;;;10475114;28;20525;-62
2022/01/21 20:37:00;;;;;;;5.85;1.67;;;7.80;99.90;;;;;;10465433;28;20100;-60
2022/01/21 20:42:08;;;;;;;3.60;1.60;;;7.90;99.90;;;;;;10512053;28;20143;-61
2022/01/21 20:47:12;;;;;;;5.95;1.58;;;7.90;99.90;;;;;;10508186;28;20031;-60
2022/01/21 20:52:14;;;;;;;5.18;1.60;;;7.90;99.90;;;;;;10519337;28;20056;-63
2022/01/21 20:57:14;;;;;;;6.25;1.90;;;7.90;99.90;;;;;;10516802;28;20011;-64
2022/01/21 21:02:15;;;;;;;10.88;1.98;;;7.90;99.90;;;;;;10501906;28;20040;-62
2022/01/21 21:07:16;;;;;;;9.68;2.10;;;7.90;99.90;;;;;;10491527;28;20103;-61
2022/01/21 21:12:17;;;;;;;3.83;1.45;;;8.00;99.90;;;;;;10517529;28;20024;-59
2022/01/21 21:27:43;;;;;;;9.68;2.10;;;8.00;99.90;;;;;;10509778;28;20078;-64
2022/01/21 23:01:55;;;;;;;3.63;1.50;;;7.90;99.90;;;;;;10521094;28;20035;-68
2022/01/21 23:06:59;;;;;;;5.85;1.45;;;7.90;99.90;;;;;;10535209;28;20382;-64
2022/01/21 23:12:00;;;;;;;5.53;1.73;;;7.90;99.90;;;;;;10514792;28;20028;-66
2022/01/21 23:17:01;;;;;;;4.18;1.55;;;7.90;99.90;;;;;;10522691;28;20545;-64
2022/01/21 23:22:02;;;;;;;4.57;1.48;;;7.90;99.90;;;;;;10527262;28;20036;-68
2022/01/21 23:27:09;;;;;;;6.85;1.58;;;7.90;99.90;;;;;;10523766;28;20435;-67
2022/01/21 23:32:11;;;;;;;3.58;1.45;;;7.90;99.90;;;;;;10524719;28;20051;-68
2022/01/21 23:37:14;;;;;;;4.43;1.27;;;7.90;99.90;;;;;;10521896;28;20032;-68
2022/01/21 23:42:15;;;;;;;5.53;1.67;;;7.90;99.90;;;;;;10519567;28;20101;-68
2022/01/21 23:47:18;;;;;;;3.67;1.20;;;7.90;99.90;;;;;;10529740;28;20020;-67
2022/01/21 23:52:19;;;;;;;5.07;1.48;;;7.90;99.90;;;;;;10525199;28;20043;-68
2022/01/21 23:57:19;;;;;;;7.13;1.33;;;7.90;99.90;;;;;;10541416;28;20016;-67
